createdAt,value
2023-02-05T00:00:01.366Z,8.50
2023-02-05T00:05:02.874Z,10.13
2023-02-05T00:10:05.010Z,8.02
2023-02-05T00:15:06.969Z,8.40
2023-02-05T00:20:09.129Z,12.30
2023-02-05T00:25:10.671Z,9.13
2023-02-05T00:30:12.690Z,11.52
2023-02-05T00:35:14.150Z,9.43
2023-02-05T00:40:15.584Z,7.82
2023-02-05T00:45:17.155Z,12.75
2023-02-05T00:50:18.938Z,6.90
2023-02-05T00:55:20.404Z,6.10
2023-02-05T01:00:22.301Z,10.50
2023-02-05T01:05:23.763Z,7.13
2023-02-05T01:10:25.404Z,7.07
2023-02-05T01:15:26.986Z,5.95
2023-02-05T01:20:29.041Z,6.93
2023-02-05T01:25:30.520Z,10.00
2023-02-05T01:30:32.072Z,6.28
2023-02-05T01:35:33.912Z,11.82
2023-02-05T01:40:35.641Z,8.25
2023-02-05T01:46:06.878Z,10.23
2023-02-05T01:51:13.889Z,6.07
2023-02-05T01:56:29.767Z,9.60
2023-02-05T02:01:32.179Z,10.95
2023-02-05T02:06:35.953Z,6.85
2023-02-05T02:11:42.279Z,8.60
2023-02-05T02:16:44.031Z,6.15
2023-02-05T02:22:04.324Z,8.23
2023-02-05T02:27:21.165Z,9.30
2023-02-05T02:32:41.260Z,8.07
2023-02-05T02:37:52.560Z,8.70
2023-02-05T02:43:05.959Z,7.57
2023-02-05T02:48:08.004Z,9.38
2023-02-05T02:53:17.885Z,7.38
2023-02-05T02:58:37.840Z,8.23
2023-02-05T03:03:43.931Z,8.20
2023-02-05T03:08:53.176Z,9.55
2023-02-05T03:13:56.344Z,13.27
2023-02-05T03:18:58.395Z,11.52
2023-02-05T03:23:59.866Z,8.23
2023-02-05T03:29:04.898Z,8.55
2023-02-05T03:34:28.410Z,7.57
2023-02-05T03:39:38.586Z,8.93
2023-02-05T03:44:45.877Z,9.38
2023-02-05T03:49:54.634Z,14.93
2023-02-05T03:55:10.129Z,10.33
2023-02-05T04:00:12.894Z,13.40
2023-02-05T04:05:14.314Z,11.57
2023-02-05T04:10:16.711Z,15.32
2023-02-05T04:15:18.173Z,8.55
2023-02-05T04:20:19.725Z,10.75
2023-02-05T04:25:21.801Z,13.13
2023-02-05T04:30:23.234Z,14.75
2023-02-05T04:35:24.914Z,10.77
2023-02-05T04:40:26.347Z,13.15
2023-02-05T04:45:31.082Z,12.43
2023-02-05T04:50:33.015Z,19.88
2023-02-05T04:55:34.781Z,14.25
2023-02-05T05:00:36.486Z,10.00
2023-02-05T05:05:37.899Z,14.88
2023-02-05T05:10:39.334Z,8.27
2023-02-05T05:15:40.825Z,9.73
2023-02-05T05:20:42.744Z,16.45
2023-02-05T05:25:46.272Z,8.52
2023-02-05T05:30:48.295Z,10.73
2023-02-05T05:35:49.716Z,9.25
2023-02-05T05:41:09.711Z,6.75
2023-02-05T05:46:11.262Z,8.73
2023-02-05T05:51:12.708Z,10.70
2023-02-05T05:56:15.163Z,7.40
2023-02-05T06:01:19.082Z,8.40
2023-02-05T06:06:20.525Z,9.30
2023-02-05T06:11:22.069Z,9.98
2023-02-05T06:16:23.529Z,11.02
2023-02-05T06:21:25.130Z,12.40
2023-02-05T06:26:26.609Z,11.63
2023-02-05T06:31:28.509Z,13.82
2023-02-05T06:36:29.993Z,16.90
2023-02-05T06:41:31.406Z,14.10
2023-02-05T06:46:32.921Z,14.07
2023-02-05T06:51:34.372Z,20.10
2023-02-05T06:56:35.807Z,48.88
2023-02-05T07:01:37.233Z,15.43
2023-02-05T07:06:38.700Z,16.08
2023-02-05T07:11:40.127Z,33.85
2023-02-05T07:16:41.536Z,15.23
2023-02-05T07:21:43.103Z,14.50
2023-02-05T07:26:45.326Z,18.23
2023-02-05T07:31:49.552Z,10.95
2023-02-05T07:36:51.842Z,16.27
2023-02-05T07:41:53.594Z,13.32
2023-02-05T07:46:55.139Z,15.38
2023-02-05T07:51:56.610Z,11.52
2023-02-05T07:57:00.137Z,12.88
2023-02-05T08:02:01.600Z,15.82
2023-02-05T08:07:03.279Z,12.93
2023-02-05T08:12:05.620Z,11.82
2023-02-05T08:17:07.157Z,10.13
2023-02-05T08:22:08.586Z,13.00
2023-02-05T08:27:10.023Z,12.68
2023-02-05T08:32:11.459Z,14.07
2023-02-05T08:37:12.915Z,12.30
2023-02-05T08:42:14.352Z,11.27
2023-02-05T08:47:19.689Z,8.95
2023-02-05T08:52:21.215Z,13.20
2023-02-05T08:57:22.755Z,11.25
2023-02-05T09:02:27.528Z,12.30
2023-02-05T09:07:30.949Z,11.48
2023-02-05T09:12:32.366Z,19.42
2023-02-05T09:17:33.823Z,13.40
2023-02-05T09:22:35.250Z,10.82
2023-02-05T09:27:36.737Z,13.65
2023-02-05T09:32:38.167Z,13.68
2023-02-05T09:37:39.593Z,12.77
2023-02-05T09:42:59.707Z,12.73
2023-02-05T09:48:08.560Z,10.23
2023-02-05T09:53:18.437Z,11.57
2023-02-05T09:58:32.958Z,8.40
2023-02-05T10:03:44.499Z,10.32
2023-02-05T10:09:03.781Z,7.10
2023-02-05T10:14:15.278Z,8.40
2023-02-05T10:19:35.260Z,4.95
2023-02-05T10:24:46.264Z,3.67
2023-02-05T10:29:57.623Z,3.95
2023-02-05T10:35:04.584Z,10.57
2023-02-05T10:40:15.096Z,7.60
2023-02-05T10:45:25.307Z,5.53
2023-02-05T10:50:36.473Z,4.55
2023-02-05T10:55:38.155Z,3.92
2023-02-05T11:00:40.148Z,4.15
2023-02-05T11:05:41.698Z,8.02
2023-02-05T11:10:53.101Z,5.75
2023-02-05T11:15:57.852Z,4.97
2023-02-05T11:21:02.963Z,4.00
2023-02-05T11:26:10.607Z,7.22
2023-02-05T11:31:27.160Z,5.32
2023-02-05T11:36:28.828Z,5.60
2023-02-05T11:41:32.826Z,4.18
2023-02-05T11:46:42.915Z,3.88
2023-02-05T11:51:47.326Z,10.32
2023-02-05T11:57:22.302Z,4.97
2023-02-05T12:02:29.603Z,5.50
2023-02-05T12:07:41.146Z,3.22
2023-02-05T12:12:51.820Z,5.38
2023-02-05T12:18:34.325Z,16.38
2023-02-05T12:23:57.460Z,7.65
2023-02-05T12:29:01.579Z,4.13
2023-02-05T12:34:05.743Z,8.20
2023-02-05T12:39:28.305Z,7.22
2023-02-05T12:44:56.143Z,6.97
2023-02-05T12:50:12.309Z,4.90
2023-02-05T12:55:33.608Z,5.15
2023-02-05T13:00:51.590Z,6.03
2023-02-05T13:05:58.253Z,5.75
2023-02-05T13:11:07.859Z,4.78
2023-02-05T13:21:36.355Z,5.20
2023-02-05T13:27:02.621Z,7.13
2023-02-05T13:32:15.605Z,9.93
2023-02-05T13:37:50.260Z,5.50
2023-02-05T13:43:12.700Z,6.05
2023-02-05T13:48:36.380Z,4.53
2023-02-05T13:54:01.555Z,9.90
2023-02-05T13:59:11.072Z,7.40
2023-02-05T14:04:23.400Z,6.93
2023-02-05T14:09:44.664Z,12.05
2023-02-05T14:15:15.299Z,16.50
2023-02-05T14:20:25.882Z,8.02
2023-02-05T14:25:37.278Z,7.90
2023-02-05T14:30:47.977Z,7.35
2023-02-05T14:35:50.421Z,11.88
2023-02-05T14:41:16.206Z,9.13
2023-02-05T14:46:59.919Z,8.05
2023-02-05T14:52:04.904Z,7.32
2023-02-05T14:57:17.568Z,6.63
2023-02-05T15:02:48.052Z,8.23
2023-02-05T15:07:53.722Z,8.57
2023-02-05T15:13:02.171Z,8.80
2023-02-05T15:18:23.963Z,10.43
2023-02-05T15:23:46.412Z,24.55
2023-02-05T15:29:20.528Z,28.02
2023-02-05T15:34:28.652Z,35.30
2023-02-05T15:39:53.695Z,16.15
2023-02-05T15:44:55.124Z,15.90
2023-02-05T15:50:00.163Z,12.77
2023-02-05T15:55:12.434Z,14.93
2023-02-05T16:00:24.619Z,12.27
2023-02-05T16:05:27.616Z,11.95
2023-02-05T16:10:34.861Z,12.55
2023-02-05T16:15:41.654Z,13.13
2023-02-05T16:20:52.038Z,13.30
2023-02-05T16:26:10.147Z,30.45
2023-02-05T16:31:20.634Z,28.00
2023-02-05T16:36:24.822Z,20.30
2023-02-05T16:41:31.170Z,21.75
2023-02-05T16:46:35.066Z,28.33
2023-02-05T16:51:45.808Z,35.72
2023-02-05T16:57:02.312Z,36.58
2023-02-05T17:02:04.086Z,41.08
2023-02-05T17:07:17.298Z,50.35
2023-02-05T17:12:21.756Z,39.60
2023-02-05T17:17:25.020Z,37.75
2023-02-05T17:22:27.553Z,33.22
2023-02-05T17:27:36.026Z,28.95
2023-02-05T17:32:37.566Z,31.38
2023-02-05T17:37:39.020Z,28.88
2023-02-05T17:42:41.014Z,25.10
2023-02-05T17:47:42.987Z,27.40
2023-02-05T17:52:45.381Z,29.73
2023-02-05T17:57:46.844Z,34.08
2023-02-05T18:02:48.617Z,51.17
2023-02-05T18:07:53.188Z,40.33
2023-02-05T18:12:56.081Z,41.70
2023-02-05T18:17:57.504Z,39.53
2023-02-05T18:22:58.983Z,42.28
2023-02-05T18:28:00.494Z,41.17
2023-02-05T18:33:02.051Z,34.28
2023-02-05T18:38:03.476Z,41.78
2023-02-05T18:43:04.977Z,47.63
2023-02-05T18:48:06.397Z,65.03
2023-02-05T18:53:07.853Z,72.15
2023-02-05T18:58:09.391Z,60.78
2023-02-05T19:03:11.937Z,71.75
2023-02-05T19:08:13.368Z,79.55
2023-02-05T19:13:14.884Z,95.05
2023-02-05T19:18:16.295Z,74.72
2023-02-05T19:23:17.719Z,66.10
2023-02-05T19:28:19.170Z,56.22
2023-02-05T19:33:20.620Z,63.92
2023-02-05T19:38:22.084Z,67.63
2023-02-05T19:43:23.527Z,60.95
2023-02-05T19:48:25.045Z,125.43
2023-02-05T19:53:26.965Z,83.35
2023-02-05T19:58:30.129Z,65.95
2023-02-05T20:03:31.541Z,61.72
2023-02-05T20:08:32.957Z,65.07
2023-02-05T20:13:36.109Z,60.00
2023-02-05T20:18:38.766Z,62.95
2023-02-05T20:23:40.515Z,62.03
2023-02-05T20:29:00.698Z,60.95
2023-02-05T20:34:04.272Z,55.05
2023-02-05T20:39:07.504Z,56.55
2023-02-05T20:44:08.937Z,57.78
2023-02-05T20:49:10.511Z,59.72
2023-02-05T20:54:12.434Z,53.95
2023-02-05T20:59:13.908Z,57.03
2023-02-05T21:04:15.364Z,58.03
2023-02-05T21:09:17.022Z,59.20
2023-02-05T21:14:18.704Z,61.00
2023-02-05T21:19:20.223Z,61.63
2023-02-05T21:24:21.796Z,62.53
2023-02-05T21:29:23.318Z,67.22
2023-02-05T21:34:27.224Z,63.53
2023-02-05T21:39:28.646Z,60.17
2023-02-05T21:44:30.138Z,57.38
2023-02-05T21:49:31.790Z,67.75
2023-02-05T21:54:33.373Z,62.67
2023-02-05T21:59:34.782Z,62.35
2023-02-05T22:04:36.789Z,53.88
2023-02-05T22:09:38.288Z,61.85
2023-02-05T22:14:39.698Z,57.50
2023-02-05T22:19:41.176Z,51.33
2023-02-05T22:24:42.608Z,54.47
2023-02-05T22:29:44.138Z,50.95
2023-02-05T22:34:45.567Z,64.45
2023-02-05T22:39:47.879Z,60.28
2023-02-05T22:44:49.301Z,57.22
2023-02-05T22:49:50.818Z,63.20
2023-02-05T22:54:52.247Z,63.67
2023-02-05T22:59:54.278Z,58.78
2023-02-05T23:04:55.738Z,62.47
2023-02-05T23:09:57.152Z,62.70
2023-02-05T23:14:58.636Z,62.72
2023-02-05T23:20:00.176Z,54.25
2023-02-05T23:25:01.843Z,59.60
2023-02-05T23:30:04.497Z,65.80
2023-02-05T23:35:06.681Z,64.18
2023-02-05T23:40:08.540Z,68.75
2023-02-05T23:45:09.989Z,77.50
2023-02-05T23:50:11.421Z,95.90
2023-02-05T23:55:12.890Z,80.10
